• Join FlightAware (Why Join?)
  • Login
  • US Flag 
03:54PM EDT


 

Airport Tracker/Info


-or-


 

Live Flight TrackerFlight Track Log ✈ N668DN ✈ 04-May-2013 ✈ KSTL - KATL

Flight Track Log - Related Links

Times and Time Zones

All times are in EDT time to prevent confusion due to time zone crossing. See the N668DN flight status page for this flight to view local times or setup timezone preferences in your user account.

Time Position Orientation Groundspeed Altitude Reporting Facility
EDT Latitude Longitude Course Direction KTS MPH feet Rate Location/Type
07:39AM 38.7667 -90.4167 127° Southeast 157 181 1,400  Level Gateway (St. Louis) TRACON
07:40AM 38.7833 -90.4667 293° West 216 249 3,900 2,700 Climbing Gateway (St. Louis) TRACON
07:41AM 38.7433 -90.4950 209° Southwest 226 260 7,300 3,000 Climbing Kansas City Center
07:42AM 38.7067 -90.4256 124° Southeast 233 268 10,400 2,580 Climbing Kansas City Center
07:43AM 38.6633 -90.3331 121° Southeast 250 288 12,600 2,580 Climbing Kansas City Center
07:44AM 38.6033 -90.2264 126° Southeast 333 383 15,700 2,820 Climbing Kansas City Center
07:45AM 38.3908 -89.8124 127° Southeast  Level FlightAware Approximate
07:45AM 38.5486 -90.1228 124° Southeast 350 403 18,400  Level Kansas City Center
07:46AM 38.4942 -90.0192 124° Southeast 353 406 20,700 2,160 Climbing Kansas City Center
07:47AM 38.4369 -89.9111 124° Southeast 363 418 22,900 1,980 Climbing Kansas City Center
07:48AM 38.3617 -89.8181 136° Southeast 379 436 24,700 1,800 Climbing Kansas City Center
07:49AM 38.2642 -89.7533 152° Southeast 391 450 26,600 1,680 Climbing Kansas City Center
07:50AM 38.1614 -89.6858 153° Southeast 402 463 28,200 1,680 Climbing Kansas City Center
07:51AM 38.0539 -89.6158 153° Southeast 404 465 30,000 1,800 Climbing Kansas City Center
07:52AM 37.9572 -89.5511 152° Southeast 396 456 31,900 1,440 Climbing Kansas City Center
07:53AM 37.8642 -89.4886 152° Southeast 381 438 33,000 540 Climbing Kansas City Center
07:55AM 37.7819 -89.4306 151° Southeast 377 434 33,000  Level Kansas City Center
07:56AM 37.6925 -89.3711 152° Southeast 379 436 33,000  Level Kansas City Center
07:57AM 37.5778 -89.2942 152° Southeast 386 444 33,000  Level Kansas City Center
07:58AM 37.4822 -89.2339 153° Southeast 384 442 33,000  Level Kansas City Center
07:59AM 37.3872 -89.1717 153° Southeast 384 442 33,000  Level Kansas City Center
07:59AM 37.3719 -89.1669 166° South 390 449 33,000  Level Memphis Center
08:00AM 37.2797 -89.1083 153° Southeast 385 443 33,000  Level Memphis Center
08:01AM 37.1875 -89.0447 151° Southeast 385 443 33,000  Level Memphis Center
08:02AM 37.0931 -88.9839 153° Southeast 385 443 33,000  Level Memphis Center
08:03AM 36.9944 -88.9181 152° Southeast 380 437 33,000  Level Memphis Center
08:04AM 36.9019 -88.8575 152° Southeast 380 437 33,000  Level Memphis Center
08:05AM 36.8075 -88.7994 154° Southeast 380 437 33,000  Level Memphis Center
08:06AM 36.7150 -88.7367 151° Southeast 375 432 33,000  Level Memphis Center
08:07AM 36.6203 -88.6764 153° Southeast 375 432 33,000  Level Memphis Center
08:08AM 36.5258 -88.6164 153° Southeast 375 432 33,000  Level Memphis Center
08:10AM 36.3342 -88.4944 153° Southeast 380 437 33,000  Level Memphis Center
08:11AM 36.2375 -88.4347 154° Southeast 387 445 33,000  Level Memphis Center
08:12AM 36.1406 -88.3703 152° Southeast 387 445 33,000  Level Memphis Center
08:13AM 36.0436 -88.3111 154° Southeast 387 445 33,000  Level Memphis Center
08:14AM 35.9447 -88.2494 153° Southeast 387 445 33,000  Level Memphis Center
08:15AM 35.8456 -88.1853 152° Southeast 392 451 33,000  Level Memphis Center
08:16AM 35.7444 -88.1267 155° Southeast 392 451 33,000  Level Memphis Center
08:17AM 35.6389 -88.0631 154° Southeast 410 472 33,000  Level Memphis Center
08:18AM 35.5378 -88.0022 154° Southeast 410 472 33,000  Level Memphis Center
08:19AM 35.4342 -87.9389 154° Southeast 410 472 33,000  Level Memphis Center
08:20AM 35.3328 -87.8731 152° Southeast 410 472 33,000  Level Memphis Center
08:21AM 35.2314 -87.8075 152° Southeast 415 478 33,000  Level Memphis Center
08:22AM 35.1469 -87.7567 154° Southeast 415 478 33,000  Level Memphis Center
08:23AM 35.0467 -87.6481 138° Southeast 421 484 33,000  Level Memphis Center
08:24AM 35.0019 -87.5153 112° Southeast 427 491 33,000  Level Memphis Center
08:25AM 34.9525 -87.3700 113° Southeast 439 505 33,000  Level Memphis Center
08:27AM 34.8664 -87.1019 111° Southeast 462 532 33,000  Level Atlanta Center
08:28AM 34.8197 -86.9661 113° Southeast 441 507 33,000  Level Atlanta Center
08:29AM 34.7728 -86.8306 113° Southeast 434 499 33,000 -180 Level Atlanta Center
08:30AM 34.7256 -86.7000 114° Southeast 428 493 32,700 -720 Descending Atlanta Center
08:31AM 34.6825 -86.5697 112° Southeast 417 480 31,600 -1,260 Descending Atlanta Center
08:32AM 34.6283 -86.4622 121° Southeast 396 456 30,200 -1,620 Descending Atlanta Center
08:33AM 34.5392 -86.4294 163° South 327 376 28,400 -1,740 Descending Atlanta Center
08:34AM 34.4431 -86.4292 180° South 318 366 26,800 -1,560 Descending Atlanta Center
08:35AM 34.3669 -86.3742 149° Southeast 324 373 25,300 -1,440 Descending Atlanta Center
08:36AM 34.3439 -86.2603 104° East 296 341 24,000 -660 Descending Atlanta Center
08:37AM 34.3272 -86.1442 100° East 314 361 24,000  Level Atlanta Center
08:38AM 34.3147 -86.0256 97° East 334 384 24,000  Level Atlanta Center
08:39AM 34.3039 -85.9047 96° East 345 397 24,000  Level Atlanta Center
08:40AM 34.2889 -85.7911 99° East 350 403 24,000  Level Atlanta Center
08:41AM 34.2761 -85.6728 97° East 350 403 24,000 -420 Level Atlanta Center
08:42AM 34.2650 -85.5494 96° East 350 403 23,200 -1,320 Descending Atlanta Center
08:43AM 34.2539 -85.4286 96° East 355 409 21,400 -1,860 Descending Atlanta Center
08:44AM 34.2428 -85.3028 96° East 370 426 19,500 -1,740 Descending Atlanta Center
08:45AM 34.2314 -85.1994 98° East 365 420 18,000 -1,560 Descending Atlanta Center
08:46AM 34.2217 -85.0939 96° East 332 382 16,400 -1,500 Descending Atlanta Center
08:47AM 34.2039 -84.9983 103° East 305 351 15,000 -1,320 Descending Atlanta Center
08:48AM 34.1375 -84.9447 146° Southeast 272 313 13,800 -1,320 Descending Atlanta Center
08:49AM 34.0581 -84.9389 177° South 265 305 12,400 -1,500 Descending Atlanta Center
08:50AM 33.9808 -84.9356 178° South 277 319 10,900 -1,260 Descending Atlanta Center
08:51AM 33.9078 -84.9397 183° South 277 319 9,900 -900 Descending Atlanta Center
08:52AM 33.8431 -84.9392 180° South 250 288 9,200 -900 Descending Atlanta Center
08:53AM 33.7806 -84.9411 181° South 217 250 8,100 -1,020 Descending Atlanta Center
08:54AM 33.7200 -84.9356 176° South 212 244 7,200 -300 Descending Atlanta Center
08:57AM 33.6333 -84.8000 127° Southeast 216 249 6,900 -480 Descending Atlanta TRACON
08:58AM 33.6333 -84.7167 90° East 198 228 5,400 -1,380 Descending Atlanta TRACON